MSC114 HESH-HELX
Flight info
| Callsign | MSC114 |
|---|---|
| Flight time | 0h 45m |
| Altitude | 23000 |
| Route | SHM R650 ASRAB L604 LXR |
| Aircraft | A320/M-SDE3FGHIRWY/LB1 |
Departure
| Time | 2026-04-26 18:08 |
|---|---|
| Airport | Sharm El Sheikh International Airport (HESH) |
Arrival
| Time | 2026-04-26 18:53 |
|---|---|
| Airport | Luxor International Airport (HELX) |
| Time | Latitude | Longitude | Altitude | Speed | Heading |
|---|---|---|---|---|---|
| 2026-04-26 17:45 | 27.97890 | 34.38793 | 172 ft | 0 kts | 132° |
| 2026-04-26 17:57 | 27.97894 | 34.38788 | 172 ft | 4 kts | 134° |
| 2026-04-26 17:58 | 27.97948 | 34.38775 | 172 ft | 1 kts | 223° |
| 2026-04-26 17:59 | 27.97948 | 34.38776 | 172 ft | 0 kts | 223° |
| 2026-04-26 18:02 | 27.97946 | 34.38774 | 172 ft | 2 kts | 223° |
| 2026-04-26 18:02 | 27.97913 | 34.38767 | 172 ft | 8 kts | 154° |
| 2026-04-26 18:02 | 27.97854 | 34.38840 | 172 ft | 15 kts | 131° |
| 2026-04-26 18:03 | 27.97808 | 34.38944 | 172 ft | 15 kts | 68° |
| 2026-04-26 18:03 | 27.97902 | 34.39046 | 172 ft | 23 kts | 42° |
| 2026-04-26 18:03 | 27.98034 | 34.39183 | 172 ft | 28 kts | 43° |
| 2026-04-26 18:03 | 27.98183 | 34.39338 | 172 ft | 30 kts | 43° |
| 2026-04-26 18:04 | 27.98336 | 34.39497 | 174 ft | 30 kts | 42° |
| 2026-04-26 18:04 | 27.98492 | 34.39659 | 174 ft | 31 kts | 43° |
| 2026-04-26 18:04 | 27.98653 | 34.39828 | 174 ft | 32 kts | 43° |
| 2026-04-26 18:05 | 27.98962 | 34.40148 | 174 ft | 25 kts | 43° |
| 2026-04-26 18:05 | 27.99003 | 34.40246 | 174 ft | 13 kts | 124° |
| 2026-04-26 18:05 | 27.98956 | 34.40305 | 174 ft | 0 kts | 133° |
| 2026-04-26 18:06 | 27.98955 | 34.40305 | 174 ft | 1 kts | 133° |
| 2026-04-26 18:06 | 27.98933 | 34.40333 | 174 ft | 8 kts | 133° |
| 2026-04-26 18:07 | 27.98892 | 34.40372 | 175 ft | 7 kts | 175° |
| 2026-04-26 18:07 | 27.98844 | 34.40328 | 175 ft | 14 kts | 222° |
| 2026-04-26 18:07 | 27.98622 | 34.40098 | 173 ft | 79 kts | 222° |
| 2026-04-26 18:07 | 27.98282 | 34.39744 | 173 ft | 120 kts | 223° |
| 2026-04-26 18:08 | 27.97245 | 34.38673 | 349 ft | 169 kts | 216° |
| 2026-04-26 18:08 | 27.96181 | 34.38217 | 1096 ft | 165 kts | 184° |
| 2026-04-26 18:08 | 27.95006 | 34.38244 | 1644 ft | 179 kts | 177° |
| 2026-04-26 18:08 | 27.93699 | 34.38397 | 2015 ft | 199 kts | 176° |
| 2026-04-26 18:09 | 27.92245 | 34.38621 | 2295 ft | 224 kts | 175° |
| 2026-04-26 18:09 | 27.90620 | 34.38880 | 2700 ft | 247 kts | 175° |
| 2026-04-26 18:09 | 27.88843 | 34.39117 | 3207 ft | 264 kts | 183° |
| 2026-04-26 18:09 | 27.87058 | 34.38680 | 3971 ft | 264 kts | 209° |
| 2026-04-26 18:10 | 27.85517 | 34.37566 | 4911 ft | 262 kts | 217° |
| 2026-04-26 18:10 | 27.84019 | 34.36394 | 5871 ft | 262 kts | 217° |
| 2026-04-26 18:10 | 27.82540 | 34.35240 | 6777 ft | 263 kts | 216° |
| 2026-04-26 18:10 | 27.81048 | 34.34077 | 7692 ft | 264 kts | 216° |
| 2026-04-26 18:11 | 27.79553 | 34.32911 | 8588 ft | 265 kts | 217° |
| 2026-04-26 18:11 | 27.78036 | 34.31728 | 9527 ft | 265 kts | 217° |
| 2026-04-26 18:11 | 27.76509 | 34.30538 | 10286 ft | 273 kts | 217° |
| 2026-04-26 18:11 | 27.74886 | 34.29267 | 10589 ft | 296 kts | 217° |
| 2026-04-26 18:12 | 27.73130 | 34.27893 | 10862 ft | 317 kts | 217° |
| 2026-04-26 18:12 | 27.71286 | 34.26455 | 11418 ft | 326 kts | 217° |
| 2026-04-26 18:12 | 27.69398 | 34.24989 | 12106 ft | 332 kts | 217° |
| 2026-04-26 18:12 | 27.67485 | 34.23504 | 12824 ft | 336 kts | 217° |
| 2026-04-26 18:13 | 27.65545 | 34.21999 | 13537 ft | 340 kts | 217° |
| 2026-04-26 18:13 | 27.63584 | 34.20480 | 14207 ft | 344 kts | 218° |
| 2026-04-26 18:13 | 27.61608 | 34.18949 | 14887 ft | 346 kts | 218° |
| 2026-04-26 18:13 | 27.60933 | 34.18426 | 15115 ft | 346 kts | 218° |
| 2026-04-26 18:14 | 27.57619 | 34.15855 | 16219 ft | 350 kts | 218° |
| 2026-04-26 18:14 | 27.55607 | 34.14291 | 16872 ft | 353 kts | 218° |
| 2026-04-26 18:14 | 27.53578 | 34.12714 | 17513 ft | 355 kts | 218° |
| 2026-04-26 18:14 | 27.51535 | 34.11129 | 18159 ft | 358 kts | 219° |
| 2026-04-26 18:15 | 27.49479 | 34.09535 | 18705 ft | 360 kts | 219° |
| 2026-04-26 18:15 | 27.47411 | 34.07934 | 19227 ft | 362 kts | 219° |
| 2026-04-26 18:15 | 27.45328 | 34.06324 | 19765 ft | 364 kts | 219° |
| 2026-04-26 18:15 | 27.43231 | 34.04699 | 20283 ft | 367 kts | 219° |
| 2026-04-26 18:16 | 27.41125 | 34.03065 | 20785 ft | 369 kts | 219° |
| 2026-04-26 18:16 | 27.36863 | 33.99766 | 21800 ft | 374 kts | 219° |
| 2026-04-26 18:16 | 27.34709 | 33.98105 | 22310 ft | 376 kts | 219° |
| 2026-04-26 18:17 | 27.32544 | 33.96438 | 22772 ft | 379 kts | 219° |
| 2026-04-26 18:17 | 27.30364 | 33.94760 | 22902 ft | 383 kts | 219° |
| 2026-04-26 18:17 | 27.28147 | 33.93048 | 22910 ft | 390 kts | 219° |
| 2026-04-26 18:17 | 27.25902 | 33.91315 | 22912 ft | 392 kts | 219° |
| 2026-04-26 18:18 | 27.23651 | 33.89579 | 22924 ft | 393 kts | 219° |
| 2026-04-26 18:18 | 27.21399 | 33.87844 | 22921 ft | 393 kts | 219° |
| 2026-04-26 18:18 | 27.19142 | 33.86107 | 22924 ft | 393 kts | 219° |
| 2026-04-26 18:18 | 27.16883 | 33.84374 | 22923 ft | 393 kts | 219° |
| 2026-04-26 18:19 | 27.15392 | 33.83231 | 22921 ft | 393 kts | 219° |
| 2026-04-26 18:19 | 27.13133 | 33.81498 | 22915 ft | 393 kts | 219° |
| 2026-04-26 18:19 | 27.10880 | 33.79769 | 22919 ft | 393 kts | 219° |
| 2026-04-26 18:19 | 27.08620 | 33.78032 | 22920 ft | 393 kts | 219° |
| 2026-04-26 18:20 | 27.06370 | 33.76303 | 22920 ft | 392 kts | 219° |
| 2026-04-26 18:20 | 27.04118 | 33.74571 | 22932 ft | 392 kts | 219° |
| 2026-04-26 18:20 | 27.01863 | 33.72841 | 22902 ft | 392 kts | 219° |
| 2026-04-26 18:20 | 27.00345 | 33.71679 | 22902 ft | 392 kts | 219° |
| 2026-04-26 18:21 | 26.97359 | 33.69395 | 22903 ft | 392 kts | 219° |
| 2026-04-26 18:21 | 26.95109 | 33.67673 | 22926 ft | 393 kts | 219° |
| 2026-04-26 18:21 | 26.92856 | 33.65946 | 22935 ft | 393 kts | 219° |
| 2026-04-26 18:21 | 26.90596 | 33.64216 | 22931 ft | 393 kts | 219° |
| 2026-04-26 18:22 | 26.88333 | 33.62485 | 22934 ft | 394 kts | 219° |
| 2026-04-26 18:22 | 26.86070 | 33.60755 | 22927 ft | 394 kts | 220° |
| 2026-04-26 18:22 | 26.83803 | 33.59024 | 22935 ft | 394 kts | 219° |
| 2026-04-26 18:22 | 26.81531 | 33.57295 | 22932 ft | 395 kts | 219° |
| 2026-04-26 18:23 | 26.79263 | 33.55567 | 22910 ft | 395 kts | 219° |
| 2026-04-26 18:23 | 26.76996 | 33.53839 | 22915 ft | 394 kts | 219° |
| 2026-04-26 18:23 | 26.74728 | 33.52108 | 22918 ft | 395 kts | 219° |
| 2026-04-26 18:23 | 26.72457 | 33.50376 | 22921 ft | 395 kts | 219° |
| 2026-04-26 18:24 | 26.70186 | 33.48649 | 22928 ft | 395 kts | 219° |
| 2026-04-26 18:24 | 26.67910 | 33.46914 | 22930 ft | 395 kts | 219° |
| 2026-04-26 18:24 | 26.65637 | 33.45181 | 22933 ft | 396 kts | 219° |
| 2026-04-26 18:24 | 26.63367 | 33.43454 | 22936 ft | 396 kts | 219° |
| 2026-04-26 18:25 | 26.61088 | 33.41723 | 22943 ft | 396 kts | 219° |
| 2026-04-26 18:25 | 26.58809 | 33.39995 | 22925 ft | 396 kts | 219° |
| 2026-04-26 18:25 | 26.56531 | 33.38269 | 22929 ft | 396 kts | 219° |
| 2026-04-26 18:25 | 26.54251 | 33.36538 | 22933 ft | 396 kts | 219° |
| 2026-04-26 18:26 | 26.51998 | 33.34828 | 22937 ft | 396 kts | 219° |
| 2026-04-26 18:26 | 26.49692 | 33.33079 | 22939 ft | 395 kts | 219° |
| 2026-04-26 18:26 | 26.47474 | 33.31401 | 22546 ft | 386 kts | 219° |
| 2026-04-26 18:26 | 26.45268 | 33.29732 | 21924 ft | 382 kts | 219° |
| 2026-04-26 18:27 | 26.43079 | 33.28076 | 21306 ft | 379 kts | 219° |
| 2026-04-26 18:27 | 26.40906 | 33.26432 | 20688 ft | 376 kts | 219° |
| 2026-04-26 18:27 | 26.38753 | 33.24802 | 20093 ft | 373 kts | 218° |
| 2026-04-26 18:27 | 26.36612 | 33.23182 | 19518 ft | 371 kts | 218° |
| 2026-04-26 18:28 | 26.34487 | 33.21575 | 18959 ft | 368 kts | 218° |
| 2026-04-26 18:28 | 26.32371 | 33.19978 | 18405 ft | 366 kts | 218° |
| 2026-04-26 18:28 | 26.30270 | 33.18392 | 17806 ft | 364 kts | 218° |
| 2026-04-26 18:28 | 26.28178 | 33.16810 | 17220 ft | 362 kts | 218° |
| 2026-04-26 18:29 | 26.26103 | 33.15243 | 16655 ft | 359 kts | 218° |
| 2026-04-26 18:29 | 26.24016 | 33.13667 | 16106 ft | 357 kts | 218° |
| 2026-04-26 18:29 | 26.21991 | 33.12141 | 15595 ft | 355 kts | 218° |
| 2026-04-26 18:29 | 26.19954 | 33.10608 | 15075 ft | 353 kts | 217° |
| 2026-04-26 18:30 | 26.17926 | 33.09083 | 14580 ft | 350 kts | 217° |
| 2026-04-26 18:30 | 26.15886 | 33.07549 | 14036 ft | 349 kts | 217° |
| 2026-04-26 18:30 | 26.13903 | 33.06055 | 13501 ft | 347 kts | 217° |
| 2026-04-26 18:30 | 26.11902 | 33.04547 | 13152 ft | 347 kts | 217° |
| 2026-04-26 18:31 | 26.09905 | 33.03044 | 12929 ft | 346 kts | 217° |
| 2026-04-26 18:31 | 26.07910 | 33.01545 | 12799 ft | 346 kts | 217° |
| 2026-04-26 18:31 | 26.05908 | 33.00043 | 12672 ft | 346 kts | 217° |
| 2026-04-26 18:31 | 26.03921 | 32.98550 | 12545 ft | 345 kts | 217° |
| 2026-04-26 18:32 | 26.01926 | 32.97055 | 12423 ft | 345 kts | 217° |
| 2026-04-26 18:32 | 25.99939 | 32.95567 | 12300 ft | 344 kts | 217° |
| 2026-04-26 18:32 | 25.97957 | 32.94080 | 12173 ft | 343 kts | 217° |
| 2026-04-26 18:32 | 25.95992 | 32.92608 | 12024 ft | 334 kts | 217° |
| 2026-04-26 18:33 | 25.94109 | 32.91199 | 11926 ft | 319 kts | 217° |
| 2026-04-26 18:33 | 25.92315 | 32.89859 | 11940 ft | 302 kts | 217° |
| 2026-04-26 18:33 | 25.90623 | 32.88594 | 11951 ft | 286 kts | 218° |
| 2026-04-26 18:33 | 25.89011 | 32.87392 | 11947 ft | 272 kts | 218° |
| 2026-04-26 18:34 | 25.87480 | 32.86249 | 11946 ft | 258 kts | 218° |
| 2026-04-26 18:34 | 25.86024 | 32.85163 | 11945 ft | 245 kts | 218° |
| 2026-04-26 18:34 | 25.84644 | 32.84131 | 11885 ft | 236 kts | 218° |
| 2026-04-26 18:34 | 25.83292 | 32.83124 | 11430 ft | 236 kts | 218° |
| 2026-04-26 18:35 | 25.81918 | 32.82096 | 10852 ft | 239 kts | 218° |
| 2026-04-26 18:35 | 25.80543 | 32.81063 | 10369 ft | 239 kts | 218° |
| 2026-04-26 18:35 | 25.79174 | 32.80032 | 9925 ft | 237 kts | 218° |
| 2026-04-26 18:35 | 25.77815 | 32.79002 | 9399 ft | 236 kts | 218° |
| 2026-04-26 18:36 | 25.76467 | 32.77974 | 8859 ft | 235 kts | 218° |
| 2026-04-26 18:36 | 25.75121 | 32.76943 | 8406 ft | 235 kts | 218° |
| 2026-04-26 18:36 | 25.73779 | 32.75910 | 8072 ft | 234 kts | 218° |
| 2026-04-26 18:36 | 25.72444 | 32.74878 | 7721 ft | 234 kts | 218° |
| 2026-04-26 18:37 | 25.71109 | 32.73840 | 7357 ft | 234 kts | 218° |
| 2026-04-26 18:37 | 25.69786 | 32.72808 | 6966 ft | 232 kts | 218° |
| 2026-04-26 18:37 | 25.68471 | 32.71771 | 6449 ft | 232 kts | 218° |
| 2026-04-26 18:37 | 25.67169 | 32.70737 | 6039 ft | 228 kts | 218° |
| 2026-04-26 18:38 | 25.65862 | 32.69696 | 5969 ft | 233 kts | 218° |
| 2026-04-26 18:38 | 25.64477 | 32.68589 | 5972 ft | 248 kts | 218° |
| 2026-04-26 18:38 | 25.63128 | 32.67515 | 5969 ft | 231 kts | 218° |
| 2026-04-26 18:38 | 25.61834 | 32.66493 | 5972 ft | 226 kts | 218° |
| 2026-04-26 18:39 | 25.60560 | 32.65485 | 5973 ft | 225 kts | 219° |
| 2026-04-26 18:39 | 25.59281 | 32.64476 | 5974 ft | 225 kts | 219° |
| 2026-04-26 18:39 | 25.58002 | 32.63469 | 5974 ft | 225 kts | 218° |
| 2026-04-26 18:39 | 25.56729 | 32.62464 | 5972 ft | 225 kts | 218° |
| 2026-04-26 18:40 | 25.55452 | 32.61456 | 5977 ft | 224 kts | 218° |
| 2026-04-26 18:40 | 25.54178 | 32.60455 | 5973 ft | 224 kts | 218° |
| 2026-04-26 18:40 | 25.52913 | 32.59455 | 5972 ft | 223 kts | 218° |
| 2026-04-26 18:40 | 25.51652 | 32.58456 | 5967 ft | 223 kts | 219° |
| 2026-04-26 18:41 | 25.50388 | 32.57462 | 5970 ft | 223 kts | 218° |
| 2026-04-26 18:41 | 25.49123 | 32.56470 | 5970 ft | 223 kts | 218° |
| 2026-04-26 18:41 | 25.47864 | 32.55469 | 5971 ft | 223 kts | 219° |
| 2026-04-26 18:41 | 25.46578 | 32.54517 | 5819 ft | 223 kts | 208° |
| 2026-04-26 18:42 | 25.45044 | 32.54229 | 5538 ft | 230 kts | 180° |
| 2026-04-26 18:42 | 25.43441 | 32.54495 | 5183 ft | 236 kts | 162° |
| 2026-04-26 18:42 | 25.42085 | 32.55523 | 4843 ft | 241 kts | 129° |
| 2026-04-26 18:42 | 25.41413 | 32.57205 | 4532 ft | 242 kts | 95° |
| 2026-04-26 18:43 | 25.41520 | 32.59039 | 4239 ft | 239 kts | 77° |
| 2026-04-26 18:43 | 25.41844 | 32.60821 | 4100 ft | 237 kts | 75° |
| 2026-04-26 18:43 | 25.42194 | 32.62599 | 3973 ft | 237 kts | 75° |
| 2026-04-26 18:43 | 25.42562 | 32.64385 | 3848 ft | 239 kts | 75° |
| 2026-04-26 18:44 | 25.42917 | 32.66162 | 3731 ft | 238 kts | 75° |
| 2026-04-26 18:44 | 25.43278 | 32.67969 | 3618 ft | 237 kts | 75° |
| 2026-04-26 18:44 | 25.43628 | 32.69748 | 3513 ft | 235 kts | 74° |
| 2026-04-26 18:44 | 25.43948 | 32.71506 | 3495 ft | 233 kts | 75° |
| 2026-04-26 18:45 | 25.44271 | 32.73280 | 3496 ft | 235 kts | 74° |
| 2026-04-26 18:45 | 25.44591 | 32.75052 | 3497 ft | 234 kts | 74° |
| 2026-04-26 18:45 | 25.44906 | 32.76818 | 3496 ft | 234 kts | 74° |
| 2026-04-26 18:45 | 25.45219 | 32.78585 | 3495 ft | 234 kts | 75° |
| 2026-04-26 18:46 | 25.45540 | 32.80348 | 3496 ft | 234 kts | 74° |
| 2026-04-26 18:46 | 25.45890 | 32.82098 | 3482 ft | 230 kts | 64° |
| 2026-04-26 18:46 | 25.46791 | 32.83477 | 3487 ft | 220 kts | 31° |
| 2026-04-26 18:46 | 25.48166 | 32.84028 | 3481 ft | 213 kts | 358° |
| 2026-04-26 18:47 | 25.49579 | 32.83588 | 3488 ft | 211 kts | 323° |
| 2026-04-26 18:47 | 25.50468 | 32.82351 | 3486 ft | 213 kts | 292° |
| 2026-04-26 18:47 | 25.50898 | 32.80777 | 3502 ft | 215 kts | 286° |
| 2026-04-26 18:47 | 25.51235 | 32.79166 | 3502 ft | 214 kts | 284° |
| 2026-04-26 18:48 | 25.51555 | 32.77555 | 3502 ft | 214 kts | 285° |
| 2026-04-26 18:48 | 25.51866 | 32.75940 | 3432 ft | 214 kts | 284° |
| 2026-04-26 18:48 | 25.52164 | 32.74332 | 3147 ft | 213 kts | 285° |
| 2026-04-26 18:48 | 25.52453 | 32.72730 | 2837 ft | 212 kts | 284° |
| 2026-04-26 18:49 | 25.52745 | 32.71139 | 2578 ft | 210 kts | 284° |
| 2026-04-26 18:49 | 25.53024 | 32.69579 | 2502 ft | 201 kts | 284° |
| 2026-04-26 18:49 | 25.53297 | 32.68105 | 2496 ft | 191 kts | 285° |
| 2026-04-26 18:49 | 25.53846 | 32.66822 | 2497 ft | 184 kts | 318° |
| 2026-04-26 18:50 | 25.54928 | 32.66086 | 2412 ft | 182 kts | 340° |
| 2026-04-26 18:50 | 25.56151 | 32.65857 | 2242 ft | 177 kts | 359° |
| 2026-04-26 18:50 | 25.57332 | 32.66135 | 2196 ft | 170 kts | 17° |
| 2026-04-26 18:50 | 25.58448 | 32.66657 | 2143 ft | 179 kts | 18° |
| 2026-04-26 18:51 | 25.59563 | 32.67201 | 1806 ft | 169 kts | 19° |
| 2026-04-26 18:51 | 25.60612 | 32.67671 | 1429 ft | 158 kts | 16° |
| 2026-04-26 18:51 | 25.61604 | 32.68102 | 1233 ft | 151 kts | 21° |
| 2026-04-26 18:51 | 25.62523 | 32.68542 | 1034 ft | 140 kts | 21° |
| 2026-04-26 18:52 | 25.63446 | 32.68937 | 839 ft | 147 kts | 24° |
| 2026-04-26 18:52 | 25.64388 | 32.69387 | 699 ft | 141 kts | 26° |
| 2026-04-26 18:52 | 25.65269 | 32.69789 | 491 ft | 136 kts | 28° |
| 2026-04-26 18:52 | 25.66150 | 32.70199 | 336 ft | 134 kts | 28° |
| 2026-04-26 18:53 | 25.66872 | 32.70536 | 328 ft | 89 kts | 22° |
| 2026-04-26 18:53 | 25.67291 | 32.70728 | 327 ft | 43 kts | 23° |
| 2026-04-26 18:53 | 25.67472 | 32.70782 | 333 ft | 17 kts | 339° |
| 2026-04-26 18:53 | 25.67508 | 32.70717 | 332 ft | 9 kts | 295° |
| 2026-04-26 18:54 | 25.67499 | 32.70649 | 331 ft | 11 kts | 224° |
| 2026-04-26 18:54 | 25.67465 | 32.70629 | 329 ft | 0 kts | 203° |
| 2026-04-26 18:54 | 25.67461 | 32.70626 | 330 ft | 3 kts | 215° |
| 2026-04-26 18:54 | 25.67468 | 32.70570 | 328 ft | 13 kts | 296° |
| 2026-04-26 18:55 | 25.67500 | 32.70495 | 329 ft | 10 kts | 296° |
| 2026-04-26 18:55 | 25.67527 | 32.70431 | 331 ft | 9 kts | 290° |
| 2026-04-26 18:55 | 25.67473 | 32.70356 | 331 ft | 17 kts | 207° |
| 2026-04-26 18:55 | 25.67371 | 32.70289 | 330 ft | 16 kts | 235° |
| 2026-04-26 18:56 | 25.67392 | 32.70196 | 331 ft | 6 kts | 296° |
| 2026-04-26 18:56 | 25.67400 | 32.70178 | 329 ft | 2 kts | 296° |
| 2026-04-26 18:56 | 25.67404 | 32.70169 | 331 ft | 0 kts | 296° |